createdAt,value
2022-08-26T00:02:04.948Z,4.25
2022-08-26T00:04:52.265Z,4.03
2022-08-26T00:07:39.927Z,4.90
2022-08-26T00:10:30.902Z,4.75
2022-08-26T00:13:19.531Z,5.25
2022-08-26T00:16:08.035Z,5.43
2022-08-26T00:18:59.213Z,5.53
2022-08-26T00:21:48.706Z,5.10
2022-08-26T00:24:36.889Z,5.90
2022-08-26T00:27:25.112Z,5.75
2022-08-26T00:30:22.747Z,7.35
2022-08-26T00:33:11.835Z,6.78
2022-08-26T00:35:59.197Z,7.25
2022-08-26T00:38:46.552Z,6.97
2022-08-26T00:41:35.209Z,8.95
2022-08-26T00:44:23.074Z,12.23
2022-08-26T00:47:22.564Z,11.80
2022-08-26T00:50:13.786Z,14.02
2022-08-26T00:53:21.350Z,17.40
2022-08-26T00:56:29.563Z,15.50
2022-08-26T00:59:17.832Z,20.90
2022-08-26T01:02:05.331Z,19.83
2022-08-26T01:04:56.419Z,23.20
2022-08-26T01:07:44.509Z,23.00
2022-08-26T01:10:31.854Z,24.83
2022-08-26T01:13:20.162Z,25.98
2022-08-26T01:16:12.690Z,28.63
2022-08-26T01:19:15.690Z,29.08
2022-08-26T01:22:10.212Z,31.17
2022-08-26T01:25:03.565Z,36.45
2022-08-26T01:27:52.069Z,36.85
2022-08-26T01:30:40.740Z,37.40
2022-08-26T01:33:52.380Z,40.25
2022-08-26T01:36:40.588Z,39.35
2022-08-26T01:39:32.173Z,42.88
2022-08-26T01:42:22.318Z,42.33
2022-08-26T01:45:15.306Z,45.13
2022-08-26T01:48:08.907Z,42.17
2022-08-26T01:50:58.456Z,46.33
2022-08-26T01:53:46.508Z,48.30
2022-08-26T01:56:36.475Z,46.35
2022-08-26T01:59:25.016Z,43.97
2022-08-26T02:02:12.976Z,46.22
2022-08-26T02:05:05.818Z,46.72
2022-08-26T02:07:53.364Z,43.58
2022-08-26T02:10:41.147Z,44.80
2022-08-26T02:16:21.992Z,42.73
2022-08-26T02:19:16.901Z,42.08
2022-08-26T02:22:08.293Z,40.80
2022-08-26T02:24:58.929Z,42.13
2022-08-26T02:27:47.585Z,40.08
2022-08-26T02:30:34.992Z,40.10
2022-08-26T02:33:23.072Z,40.35
2022-08-26T02:36:10.493Z,39.97
2022-08-26T02:38:59.470Z,39.08
2022-08-26T02:41:46.856Z,37.17
2022-08-26T02:44:35.699Z,38.67
2022-08-26T02:47:24.867Z,36.45
2022-08-26T02:50:12.305Z,37.65
2022-08-26T02:52:59.597Z,40.10
2022-08-26T02:55:49.411Z,38.00
2022-08-26T02:58:37.248Z,36.55
2022-08-26T03:01:35.373Z,35.22
2022-08-26T03:04:22.744Z,33.67
2022-08-26T03:07:13.260Z,36.88
2022-08-26T03:10:00.765Z,36.28
2022-08-26T03:12:48.266Z,37.00
2022-08-26T03:15:35.545Z,37.30
2022-08-26T03:18:24.596Z,38.40
2022-08-26T03:21:17.793Z,36.95
2022-08-26T03:24:05.889Z,37.45
2022-08-26T03:26:53.313Z,36.75
2022-08-26T03:29:59.612Z,36.80
2022-08-26T03:32:46.853Z,37.47
2022-08-26T03:35:34.961Z,39.70
2022-08-26T03:38:26.692Z,36.47
2022-08-26T03:41:14.092Z,37.90
2022-08-26T03:44:02.410Z,39.50
2022-08-26T03:46:50.850Z,38.30
2022-08-26T03:49:38.371Z,38.70
2022-08-26T03:52:26.594Z,37.95
2022-08-26T03:55:16.441Z,39.80
2022-08-26T03:58:05.006Z,39.38
2022-08-26T04:00:55.557Z,37.72
2022-08-26T04:04:00.020Z,37.30
2022-08-26T04:06:48.049Z,37.45
2022-08-26T04:09:35.479Z,38.28
2022-08-26T04:12:23.632Z,39.22
2022-08-26T04:15:15.110Z,37.50
2022-08-26T04:18:02.371Z,35.13
2022-08-26T04:20:50.526Z,36.25
2022-08-26T04:23:47.560Z,35.72
2022-08-26T04:26:39.554Z,36.08
2022-08-26T04:29:30.189Z,35.55
2022-08-26T04:32:17.499Z,36.20
2022-08-26T04:35:05.551Z,34.22
2022-08-26T04:37:53.529Z,33.47
2022-08-26T04:40:46.695Z,34.63
2022-08-26T04:43:34.286Z,32.88
2022-08-26T04:46:24.350Z,33.80
2022-08-26T04:49:12.718Z,34.38
2022-08-26T04:52:00.026Z,33.10
2022-08-26T04:54:47.308Z,32.70
2022-08-26T04:57:35.318Z,32.05
2022-08-26T05:00:23.096Z,29.63
2022-08-26T05:03:10.765Z,31.90
2022-08-26T05:05:58.582Z,30.83
2022-08-26T05:08:46.667Z,30.80
2022-08-26T05:11:34.055Z,30.42
2022-08-26T05:14:23.245Z,27.35
2022-08-26T05:17:10.660Z,27.65
2022-08-26T05:20:02.517Z,26.23
2022-08-26T05:22:51.287Z,28.67
2022-08-26T05:25:41.835Z,26.15
2022-08-26T05:28:29.928Z,24.63
2022-08-26T05:31:19.910Z,26.13
2022-08-26T05:34:07.445Z,24.35
2022-08-26T05:36:55.918Z,25.27
2022-08-26T05:39:43.561Z,22.92
2022-08-26T05:42:38.562Z,23.13
2022-08-26T05:45:26.480Z,21.00
2022-08-26T05:48:16.872Z,20.25
2022-08-26T05:51:08.480Z,20.75
2022-08-26T05:53:56.249Z,18.40
2022-08-26T05:56:43.497Z,18.35
2022-08-26T05:59:33.859Z,18.48
2022-08-26T06:02:24.781Z,17.98
2022-08-26T06:05:13.104Z,16.20
2022-08-26T06:08:14.108Z,16.00
2022-08-26T06:11:05.553Z,16.88
2022-08-26T06:14:03.057Z,17.00
2022-08-26T06:16:51.376Z,15.60
2022-08-26T06:19:38.666Z,16.35
2022-08-26T06:22:47.262Z,16.08
2022-08-26T06:25:38.513Z,15.52
2022-08-26T06:28:26.573Z,14.95
2022-08-26T06:31:15.303Z,14.80
2022-08-26T06:34:08.593Z,15.50
2022-08-26T06:37:06.379Z,14.23
2022-08-26T06:39:53.917Z,14.63
2022-08-26T06:42:41.257Z,14.75
2022-08-26T06:45:28.558Z,12.30
2022-08-26T06:48:18.957Z,12.57
2022-08-26T06:51:15.228Z,13.38
2022-08-26T06:54:04.536Z,12.73
2022-08-26T06:56:52.249Z,13.05
2022-08-26T06:59:39.515Z,10.88
2022-08-26T07:02:28.597Z,11.52
2022-08-26T07:05:16.176Z,11.80
2022-08-26T07:08:03.740Z,11.95
2022-08-26T07:10:51.142Z,11.68
2022-08-26T07:13:43.103Z,12.40
2022-08-26T07:16:30.685Z,11.80
2022-08-26T07:19:30.430Z,11.73
2022-08-26T07:22:18.709Z,11.50
2022-08-26T07:25:08.639Z,10.75
2022-08-26T07:27:55.904Z,11.95
2022-08-26T07:30:43.406Z,9.90
2022-08-26T07:33:30.736Z,11.30
2022-08-26T07:36:19.132Z,10.48
2022-08-26T07:39:06.796Z,9.80
2022-08-26T07:41:54.277Z,10.27
2022-08-26T07:44:43.559Z,9.40
2022-08-26T07:47:31.004Z,10.00
2022-08-26T07:50:18.339Z,9.30
2022-08-26T07:53:05.711Z,9.82
2022-08-26T07:55:56.154Z,9.23
2022-08-26T07:58:45.743Z,10.23
2022-08-26T08:01:35.527Z,12.95
2022-08-26T08:04:27.069Z,11.68
2022-08-26T08:07:14.610Z,12.73
2022-08-26T08:10:04.562Z,13.60
2022-08-26T08:12:57.515Z,15.95
2022-08-26T08:15:46.141Z,15.55
2022-08-26T08:18:33.550Z,17.35
2022-08-26T08:21:21.760Z,16.92
2022-08-26T08:24:11.560Z,21.05
2022-08-26T08:27:00.432Z,21.63
2022-08-26T08:29:47.862Z,23.05
2022-08-26T08:32:39.883Z,20.88
2022-08-26T08:35:27.405Z,23.45
2022-08-26T08:38:15.473Z,27.45
2022-08-26T08:41:05.602Z,30.40
2022-08-26T08:43:53.348Z,31.23
2022-08-26T08:46:42.819Z,26.08
2022-08-26T08:49:32.160Z,25.27
2022-08-26T08:52:35.060Z,28.02
2022-08-26T08:55:30.731Z,23.33
2022-08-26T08:58:21.777Z,21.10
2022-08-26T09:01:17.437Z,21.08
2022-08-26T09:04:17.280Z,20.75
2022-08-26T09:07:08.770Z,17.70
2022-08-26T09:10:00.888Z,17.55
2022-08-26T09:12:49.300Z,16.50
2022-08-26T09:16:01.608Z,17.85
2022-08-26T09:18:48.877Z,15.43
2022-08-26T09:21:37.388Z,16.10
2022-08-26T09:24:28.402Z,16.90
2022-08-26T09:27:41.917Z,20.10
2022-08-26T09:30:33.153Z,15.85
2022-08-26T09:33:28.393Z,13.70
2022-08-26T09:36:15.673Z,14.38
2022-08-26T09:39:04.418Z,13.90
2022-08-26T09:42:11.795Z,12.73
2022-08-26T09:45:03.485Z,13.15
2022-08-26T09:47:51.203Z,11.95
2022-08-26T09:50:51.278Z,11.50
2022-08-26T09:53:52.387Z,11.30
2022-08-26T09:56:40.147Z,11.32
2022-08-26T09:59:30.753Z,10.88
2022-08-26T10:02:29.702Z,9.63
2022-08-26T10:05:29.658Z,9.50
2022-08-26T10:08:38.471Z,8.65
2022-08-26T10:11:42.447Z,7.95
2022-08-26T10:17:41.309Z,8.55
2022-08-26T10:20:37.941Z,7.88
2022-08-26T10:23:32.654Z,8.57
2022-08-26T10:26:41.274Z,7.20
2022-08-26T10:29:39.166Z,7.90
2022-08-26T10:32:35.185Z,6.88
2022-08-26T10:35:26.905Z,7.28
2022-08-26T10:38:18.390Z,6.10
2022-08-26T10:41:15.853Z,6.82
2022-08-26T10:44:08.365Z,7.07
2022-08-26T10:47:09.022Z,6.72
2022-08-26T10:53:13.853Z,6.20
2022-08-26T10:56:01.975Z,6.65
2022-08-26T10:59:26.372Z,5.80
2022-08-26T11:02:39.668Z,6.13
2022-08-26T11:05:26.925Z,5.88
2022-08-26T11:08:20.846Z,5.20
2022-08-26T11:11:08.294Z,5.65
2022-08-26T11:14:05.494Z,5.38
2022-08-26T11:16:56.833Z,5.07
2022-08-26T11:20:09.163Z,5.07
2022-08-26T11:23:13.006Z,4.15
2022-08-26T11:26:35.383Z,4.07
2022-08-26T11:30:15.685Z,3.80
2022-08-26T11:33:07.083Z,3.95
2022-08-26T11:35:54.941Z,4.40
2022-08-26T11:38:42.641Z,3.35
2022-08-26T11:41:31.245Z,4.00
2022-08-26T11:44:26.173Z,4.28
2022-08-26T11:47:16.337Z,3.60
2022-08-26T11:50:12.509Z,4.05
2022-08-26T11:53:06.280Z,3.67
2022-08-26T11:55:56.908Z,4.05
2022-08-26T11:58:47.666Z,3.65
2022-08-26T12:04:30.295Z,3.75
2022-08-26T12:07:24.410Z,4.30
2022-08-26T12:10:26.677Z,4.38
2022-08-26T12:13:23.476Z,3.72
2022-08-26T12:16:12.454Z,3.42
2022-08-26T12:19:00.085Z,4.10
2022-08-26T12:21:48.864Z,3.15
2022-08-26T12:24:42.252Z,3.80
2022-08-26T12:27:37.174Z,3.53
2022-08-26T12:30:26.296Z,3.17
2022-08-26T12:33:23.082Z,4.45
2022-08-26T12:36:12.086Z,3.38
2022-08-26T12:39:30.856Z,2.53
2022-08-26T12:42:38.489Z,2.85
2022-08-26T12:45:31.364Z,4.10
2022-08-26T12:48:29.857Z,3.20
2022-08-26T12:51:25.121Z,3.40
2022-08-26T12:54:15.893Z,3.58
2022-08-26T12:57:11.830Z,3.22
2022-08-26T13:00:26.271Z,3.35
2022-08-26T13:03:33.753Z,3.13
2022-08-26T13:06:22.072Z,3.85
2022-08-26T13:09:09.262Z,3.20
2022-08-26T13:11:58.493Z,4.10
2022-08-26T13:14:46.113Z,3.38
2022-08-26T13:17:35.768Z,3.63
2022-08-26T13:20:23.217Z,3.20
2022-08-26T13:23:10.778Z,3.40
2022-08-26T13:25:59.825Z,3.50
2022-08-26T13:28:48.628Z,2.88
2022-08-26T13:31:49.394Z,3.22
2022-08-26T13:34:37.621Z,2.83
2022-08-26T13:37:34.308Z,2.45
2022-08-26T13:40:22.165Z,2.80
2022-08-26T13:43:10.926Z,2.97
2022-08-26T13:45:58.275Z,2.60
2022-08-26T13:48:45.581Z,3.30
2022-08-26T13:51:33.563Z,2.95
2022-08-26T13:54:21.125Z,2.58
2022-08-26T13:57:09.065Z,2.50
2022-08-26T13:59:58.812Z,2.72
2022-08-26T14:02:46.829Z,2.88
2022-08-26T14:05:34.177Z,2.60
2022-08-26T14:08:22.232Z,2.85
2022-08-26T14:11:09.885Z,2.88
2022-08-26T14:13:57.160Z,2.63
2022-08-26T14:16:58.966Z,2.80
2022-08-26T14:19:49.683Z,2.97
2022-08-26T14:22:43.709Z,2.72
2022-08-26T14:25:45.593Z,2.88
2022-08-26T14:28:32.861Z,2.92
2022-08-26T14:31:20.702Z,2.45
2022-08-26T14:34:08.105Z,2.90
2022-08-26T14:36:55.357Z,2.47
2022-08-26T14:39:42.725Z,2.95
2022-08-26T14:42:31.592Z,2.58
2022-08-26T14:45:23.166Z,2.28
2022-08-26T14:48:10.813Z,2.88
2022-08-26T14:50:58.091Z,3.10
2022-08-26T14:54:03.814Z,2.85
2022-08-26T14:56:54.556Z,3.25
2022-08-26T14:59:49.749Z,2.85
2022-08-26T15:02:38.756Z,2.40
2022-08-26T15:05:26.125Z,2.47
2022-08-26T15:08:13.367Z,2.60
2022-08-26T15:11:00.703Z,2.55
2022-08-26T15:13:48.172Z,2.70
2022-08-26T15:16:38.041Z,2.65
2022-08-26T15:19:26.737Z,2.47
2022-08-26T15:22:14.018Z,2.40
2022-08-26T15:25:01.851Z,2.42
2022-08-26T15:27:49.122Z,2.65
2022-08-26T15:30:36.441Z,2.45
2022-08-26T15:33:23.710Z,4.57
2022-08-26T15:36:11.526Z,3.50
2022-08-26T15:39:00.569Z,4.40
2022-08-26T15:41:47.942Z,3.60
2022-08-26T15:44:36.539Z,3.25
2022-08-26T15:47:24.285Z,2.75
2022-08-26T15:50:11.701Z,2.50
2022-08-26T15:53:01.264Z,3.22
2022-08-26T15:55:49.009Z,3.20
2022-08-26T15:58:37.038Z,3.00
2022-08-26T16:01:27.724Z,2.65
2022-08-26T16:04:15.390Z,2.50
2022-08-26T16:07:03.321Z,3.08
2022-08-26T16:09:54.248Z,2.35
2022-08-26T16:12:42.493Z,2.40
2022-08-26T16:15:32.259Z,2.80
2022-08-26T16:18:20.333Z,2.75
2022-08-26T16:21:20.324Z,2.80
2022-08-26T16:24:07.847Z,2.85
2022-08-26T16:26:55.118Z,2.45
2022-08-26T16:29:42.417Z,2.78
2022-08-26T16:32:31.353Z,2.75
2022-08-26T16:35:18.752Z,2.33
2022-08-26T16:38:06.556Z,2.55
2022-08-26T16:40:53.977Z,2.95
2022-08-26T16:43:41.301Z,2.80
2022-08-26T16:46:29.030Z,3.15
2022-08-26T16:49:16.410Z,3.00
2022-08-26T16:52:04.438Z,2.50
2022-08-26T16:54:53.014Z,2.60
2022-08-26T16:57:42.985Z,2.53
2022-08-26T17:00:32.990Z,2.38
2022-08-26T17:03:20.475Z,2.45
2022-08-26T17:06:08.385Z,2.83
2022-08-26T17:08:55.717Z,2.70
2022-08-26T17:11:43.680Z,2.35
2022-08-26T17:14:31.290Z,2.50
2022-08-26T17:17:18.557Z,2.38
2022-08-26T17:20:09.690Z,2.38
2022-08-26T17:22:57.073Z,2.50
2022-08-26T17:25:44.407Z,2.78
2022-08-26T17:28:32.217Z,2.80
2022-08-26T17:31:20.876Z,2.20
2022-08-26T17:34:08.313Z,2.10
2022-08-26T17:36:55.637Z,2.53
2022-08-26T17:39:44.049Z,2.40
2022-08-26T17:42:31.860Z,2.15
2022-08-26T17:48:08.352Z,2.35
2022-08-26T17:50:56.440Z,2.50
2022-08-26T17:53:43.773Z,1.95
2022-08-26T17:56:31.165Z,2.15
2022-08-26T17:59:18.492Z,2.00
2022-08-26T18:02:06.219Z,1.80
2022-08-26T18:04:53.462Z,2.20
2022-08-26T18:07:44.000Z,1.52
2022-08-26T18:10:32.046Z,1.70
2022-08-26T18:13:19.324Z,1.60
2022-08-26T18:16:06.836Z,1.80
2022-08-26T18:18:54.383Z,1.80
2022-08-26T18:21:41.637Z,1.90
2022-08-26T18:24:30.436Z,2.13
2022-08-26T18:27:17.692Z,1.75
2022-08-26T18:30:09.807Z,1.52
2022-08-26T18:33:00.217Z,1.90
2022-08-26T18:35:47.516Z,2.10
2022-08-26T18:38:34.825Z,2.15
2022-08-26T18:41:24.766Z,1.77
2022-08-26T18:44:14.114Z,1.83
2022-08-26T18:49:48.693Z,1.65
2022-08-26T18:52:36.282Z,2.00
2022-08-26T18:55:23.643Z,1.50
2022-08-26T18:58:11.579Z,1.73
2022-08-26T19:00:59.260Z,1.85
2022-08-26T19:03:48.033Z,1.75
2022-08-26T19:06:35.771Z,1.92
2022-08-26T19:09:26.070Z,2.00
2022-08-26T19:12:13.349Z,1.50
2022-08-26T19:15:02.438Z,1.52
2022-08-26T19:17:50.212Z,1.65
2022-08-26T19:20:46.392Z,1.60
2022-08-26T19:23:34.434Z,1.63
2022-08-26T19:26:22.047Z,1.50
2022-08-26T19:29:09.490Z,1.65
2022-08-26T19:31:56.805Z,1.50
2022-08-26T19:34:44.470Z,1.95
2022-08-26T19:37:32.715Z,2.03
2022-08-26T19:40:20.019Z,1.65
2022-08-26T19:43:08.389Z,1.83
2022-08-26T19:45:55.777Z,1.35
2022-08-26T19:48:44.433Z,1.60
2022-08-26T19:51:33.854Z,1.75
2022-08-26T19:57:11.691Z,1.95
2022-08-26T19:59:59.690Z,1.45
2022-08-26T20:02:47.469Z,2.35
2022-08-26T20:05:35.238Z,1.90
2022-08-26T20:08:22.862Z,1.55
2022-08-26T20:11:14.511Z,1.30
2022-08-26T20:14:02.142Z,2.08
2022-08-26T20:16:49.534Z,2.00
2022-08-26T20:19:55.475Z,2.13
2022-08-26T20:22:43.132Z,2.10
2022-08-26T20:25:32.473Z,1.90
2022-08-26T20:28:19.728Z,1.77
2022-08-26T20:31:06.987Z,1.88
2022-08-26T20:33:56.077Z,1.75
2022-08-26T20:36:44.496Z,1.88
2022-08-26T20:39:31.752Z,1.77
2022-08-26T20:42:20.029Z,1.77
2022-08-26T20:45:08.642Z,1.73
2022-08-26T20:47:55.905Z,2.20
2022-08-26T20:50:43.195Z,1.70
2022-08-26T20:53:31.304Z,1.67
2022-08-26T20:56:26.180Z,1.45
2022-08-26T20:59:14.126Z,1.60
2022-08-26T21:02:01.449Z,1.52
2022-08-26T21:04:48.782Z,1.42
2022-08-26T21:07:36.075Z,1.55
2022-08-26T21:10:23.511Z,1.52
2022-08-26T21:13:11.523Z,1.73
2022-08-26T21:16:02.026Z,1.50
2022-08-26T21:18:49.877Z,1.50
2022-08-26T21:21:37.477Z,1.45
2022-08-26T21:24:24.769Z,1.30
2022-08-26T21:27:12.044Z,1.48
2022-08-26T21:29:59.352Z,1.70
2022-08-26T21:32:46.641Z,1.48
2022-08-26T21:35:34.223Z,2.20
2022-08-26T21:38:22.149Z,1.88
2022-08-26T21:41:14.501Z,1.90
2022-08-26T21:44:04.067Z,1.70
2022-08-26T21:46:51.293Z,1.95
2022-08-26T21:49:38.950Z,1.90
2022-08-26T21:52:26.461Z,2.05
2022-08-26T21:55:13.751Z,2.40
2022-08-26T21:58:01.125Z,2.13
2022-08-26T22:00:49.588Z,4.72
2022-08-26T22:03:46.638Z,3.38
2022-08-26T22:06:43.132Z,3.17
2022-08-26T22:09:31.553Z,3.30
2022-08-26T22:12:18.974Z,4.25
2022-08-26T22:15:06.933Z,7.18
2022-08-26T22:17:54.169Z,8.02
2022-08-26T22:20:41.777Z,12.88
2022-08-26T22:23:29.312Z,20.67
2022-08-26T22:26:25.532Z,17.30
2022-08-26T22:29:13.581Z,19.63
2022-08-26T22:32:01.475Z,20.23
2022-08-26T22:34:48.861Z,19.38
2022-08-26T22:37:36.130Z,19.25
2022-08-26T22:40:23.530Z,16.83
2022-08-26T22:43:12.021Z,17.77
2022-08-26T22:45:59.360Z,19.42
2022-08-26T22:48:46.873Z,21.98
2022-08-26T22:51:39.236Z,38.45
2022-08-26T22:54:26.609Z,31.02
2022-08-26T22:57:13.882Z,27.17
2022-08-26T23:00:01.177Z,22.27
2022-08-26T23:02:48.449Z,22.75
2022-08-26T23:05:35.749Z,24.15
2022-08-26T23:08:24.602Z,23.98
2022-08-26T23:11:12.927Z,22.52
2022-08-26T23:14:05.035Z,24.00
2022-08-26T23:16:53.749Z,21.45
2022-08-26T23:19:41.243Z,15.05
2022-08-26T23:22:28.562Z,9.27
2022-08-26T23:25:15.905Z,7.30
2022-08-26T23:28:03.926Z,6.30
2022-08-26T23:30:51.281Z,5.43
2022-08-26T23:33:57.217Z,4.63
2022-08-26T23:36:46.318Z,4.35
2022-08-26T23:39:35.968Z,4.67
2022-08-26T23:42:23.257Z,4.10
2022-08-26T23:45:12.700Z,4.05
2022-08-26T23:51:05.919Z,3.67
2022-08-26T23:53:53.218Z,3.42
2022-08-26T23:56:40.849Z,3.40
2022-08-26T23:59:28.196Z,3.80
